createdAt,value
2018-05-18T00:02:25.111Z,99.90
2018-05-18T00:04:52.620Z,99.90
2018-05-18T00:07:27.344Z,99.90
2018-05-18T00:09:54.908Z,99.90
2018-05-18T00:12:22.373Z,99.90
2018-05-18T00:14:49.844Z,99.90
2018-05-18T00:17:17.334Z,99.90
2018-05-18T00:19:44.797Z,99.90
2018-05-18T00:22:17.984Z,99.90
2018-05-18T00:24:45.736Z,99.90
2018-05-18T00:27:14.280Z,99.90
2018-05-18T00:29:41.828Z,99.90
2018-05-18T00:32:09.289Z,99.90
2018-05-18T00:34:36.752Z,99.90
2018-05-18T00:37:11.733Z,99.90
2018-05-18T00:39:39.766Z,99.90
2018-05-18T00:42:07.230Z,99.90
2018-05-18T00:44:34.692Z,99.90
2018-05-18T00:47:02.191Z,99.90
2018-05-18T00:49:29.640Z,99.90
2018-05-18T00:51:57.097Z,99.90
2018-05-18T00:54:24.593Z,99.90
2018-05-18T00:56:52.079Z,99.90
2018-05-18T00:59:19.572Z,99.90
2018-05-18T01:01:47.689Z,99.90
2018-05-18T01:04:15.197Z,99.90
2018-05-18T01:06:42.646Z,99.90
2018-05-18T01:09:10.118Z,99.90
2018-05-18T01:11:37.576Z,99.90
2018-05-18T01:14:05.939Z,99.90
2018-05-18T01:16:33.652Z,99.90
2018-05-18T01:19:02.487Z,99.90
2018-05-18T01:21:29.946Z,99.90
2018-05-18T01:23:57.415Z,99.90
2018-05-18T01:26:26.587Z,99.90
2018-05-18T01:28:54.097Z,99.90
2018-05-18T01:31:21.572Z,99.90
2018-05-18T01:33:49.172Z,99.90
2018-05-18T01:36:16.783Z,99.90
2018-05-18T01:38:44.237Z,99.90
2018-05-18T01:41:11.726Z,99.90
2018-05-18T01:43:39.412Z,99.90
2018-05-18T01:46:06.895Z,99.90
2018-05-18T01:48:34.936Z,99.90
2018-05-18T01:51:03.051Z,99.90
2018-05-18T01:53:30.514Z,99.90
2018-05-18T01:55:58.011Z,99.90
2018-05-18T01:58:25.545Z,99.90
2018-05-18T02:00:53.874Z,99.90
2018-05-18T02:03:21.323Z,99.90
2018-05-18T02:05:49.589Z,99.90
2018-05-18T02:08:17.053Z,99.90
2018-05-18T02:10:44.605Z,99.90
2018-05-18T02:13:13.512Z,99.90
2018-05-18T02:15:40.997Z,99.90
2018-05-18T02:18:08.489Z,99.90
2018-05-18T02:20:35.968Z,99.90
2018-05-18T02:23:03.431Z,99.90
2018-05-18T02:25:31.045Z,99.90
2018-05-18T02:27:58.519Z,99.90
2018-05-18T02:30:27.400Z,99.90
2018-05-18T02:32:54.960Z,99.90
2018-05-18T02:35:22.449Z,99.90
2018-05-18T02:37:49.928Z,99.90
2018-05-18T02:40:17.380Z,99.90
2018-05-18T02:42:46.035Z,99.90
2018-05-18T02:45:13.517Z,99.90
2018-05-18T02:47:40.976Z,99.90
2018-05-18T02:50:08.488Z,99.90
2018-05-18T02:52:35.960Z,99.90
2018-05-18T02:55:03.422Z,99.90
2018-05-18T02:57:30.884Z,99.90
2018-05-18T02:59:58.420Z,99.90
2018-05-18T03:02:26.012Z,99.90
2018-05-18T03:04:54.569Z,99.90
2018-05-18T03:07:22.097Z,99.90
2018-05-18T03:09:50.335Z,99.90
2018-05-18T03:12:22.517Z,99.90
2018-05-18T03:14:50.172Z,99.90
2018-05-18T03:17:17.640Z,99.90
2018-05-18T03:19:45.102Z,99.90
2018-05-18T03:22:15.420Z,99.90
2018-05-18T03:24:42.863Z,99.90
2018-05-18T03:27:14.613Z,99.90
2018-05-18T03:29:42.857Z,99.90
2018-05-18T03:32:10.364Z,99.90
2018-05-18T03:34:37.807Z,99.90
2018-05-18T03:37:05.258Z,99.90
2018-05-18T03:39:36.305Z,99.90
2018-05-18T03:42:03.779Z,99.90
2018-05-18T03:44:31.261Z,99.90
2018-05-18T03:46:58.742Z,99.90
2018-05-18T03:49:26.204Z,99.90
2018-05-18T03:51:53.741Z,99.90
2018-05-18T03:54:21.215Z,99.90
2018-05-18T03:56:48.702Z,99.90
2018-05-18T03:59:18.632Z,99.90
2018-05-18T04:01:58.002Z,99.90
2018-05-18T04:07:37.743Z,99.90
2018-05-18T04:10:05.236Z,99.90
2018-05-18T04:12:36.547Z,99.90
2018-05-18T04:15:04.001Z,99.90
2018-05-18T04:17:32.254Z,99.90
2018-05-18T04:19:59.710Z,99.90
2018-05-18T04:22:27.169Z,99.90
2018-05-18T04:24:54.621Z,99.90
2018-05-18T04:27:22.100Z,99.90
2018-05-18T04:29:49.581Z,99.90
2018-05-18T04:32:17.020Z,99.90
2018-05-18T04:34:45.899Z,99.90
2018-05-18T04:37:13.353Z,99.90
2018-05-18T04:39:40.814Z,99.90
2018-05-18T04:42:08.309Z,99.90
2018-05-18T04:44:35.792Z,99.90
2018-05-18T04:47:04.194Z,99.90
2018-05-18T04:49:31.730Z,99.90
2018-05-18T04:51:59.259Z,99.90
2018-05-18T04:54:26.884Z,99.90
2018-05-18T04:56:57.476Z,99.90
2018-05-18T04:59:24.964Z,99.90
2018-05-18T05:01:52.737Z,99.90
2018-05-18T05:04:21.715Z,99.90
2018-05-18T05:06:49.225Z,99.90
2018-05-18T05:09:16.703Z,99.90
2018-05-18T05:11:44.167Z,99.90
2018-05-18T05:14:11.636Z,99.90
2018-05-18T05:16:39.101Z,99.90
2018-05-18T05:19:06.585Z,99.90
2018-05-18T05:21:34.046Z,99.90
2018-05-18T05:24:02.196Z,99.90
2018-05-18T05:26:33.620Z,99.90
2018-05-18T05:29:01.069Z,99.90
2018-05-18T05:31:28.552Z,99.90
2018-05-18T05:33:56.032Z,99.90
2018-05-18T05:36:23.525Z,99.90
2018-05-18T05:38:51.804Z,99.90
2018-05-18T05:41:19.309Z,99.90
2018-05-18T05:43:46.771Z,99.90
2018-05-18T05:46:14.245Z,99.90
2018-05-18T05:48:41.699Z,99.90
2018-05-18T05:51:09.239Z,99.90
2018-05-18T05:53:36.692Z,99.90
2018-05-18T05:56:05.228Z,99.90
2018-05-18T05:58:32.786Z,99.90
2018-05-18T06:01:00.231Z,99.90
2018-05-18T06:03:28.566Z,99.90
2018-05-18T06:05:59.009Z,99.90
2018-05-18T06:08:26.468Z,99.90
2018-05-18T06:10:55.445Z,99.90
2018-05-18T06:13:22.917Z,99.90
2018-05-18T06:15:51.155Z,99.90
2018-05-18T06:18:19.180Z,99.90
2018-05-18T06:20:46.929Z,99.90
2018-05-18T06:23:14.424Z,99.90
2018-05-18T06:25:41.901Z,99.90
2018-05-18T06:28:09.382Z,99.90
2018-05-18T06:30:36.856Z,99.90
2018-05-18T06:33:04.358Z,99.90
2018-05-18T06:35:31.861Z,99.90
2018-05-18T06:37:59.359Z,99.90
2018-05-18T06:40:28.509Z,99.90
2018-05-18T06:42:58.965Z,99.90
2018-05-18T06:45:26.426Z,99.90
2018-05-18T06:47:53.883Z,99.90
2018-05-18T06:50:21.355Z,99.90
2018-05-18T06:52:49.011Z,99.90
2018-05-18T06:55:17.469Z,99.90
2018-05-18T06:57:48.234Z,99.90
2018-05-18T07:00:15.978Z,99.90
2018-05-18T07:02:43.474Z,99.90
2018-05-18T07:05:10.960Z,99.90
2018-05-18T07:07:38.469Z,99.90
2018-05-18T07:10:06.776Z,99.90
2018-05-18T07:12:34.270Z,99.90
2018-05-18T07:15:01.760Z,99.90
2018-05-18T07:17:29.265Z,99.90
2018-05-18T07:19:56.749Z,99.90
2018-05-18T07:22:24.211Z,99.90
2018-05-18T07:24:51.722Z,99.90
2018-05-18T07:27:20.923Z,99.90
2018-05-18T07:29:48.386Z,99.90
2018-05-18T07:32:15.893Z,99.90
2018-05-18T07:34:44.129Z,99.90
2018-05-18T07:37:11.588Z,99.90
2018-05-18T07:39:40.912Z,99.90
2018-05-18T07:42:08.725Z,99.90
2018-05-18T07:44:36.200Z,99.90
2018-05-18T07:47:04.662Z,99.90
2018-05-18T07:49:32.154Z,99.90
2018-05-18T07:51:59.757Z,99.90
2018-05-18T07:54:27.248Z,99.90
2018-05-18T07:56:54.728Z,99.90
2018-05-18T07:59:25.272Z,99.90
2018-05-18T08:01:52.638Z,99.90
2018-05-18T08:04:20.118Z,99.90
2018-05-18T08:06:48.957Z,99.90
2018-05-18T08:09:16.423Z,99.90
2018-05-18T08:11:44.021Z,99.90
2018-05-18T08:14:17.018Z,99.90
2018-05-18T08:16:45.255Z,99.90
2018-05-18T08:19:12.839Z,99.90
2018-05-18T08:21:40.481Z,99.90
2018-05-18T08:24:08.228Z,99.90
2018-05-18T08:26:35.732Z,99.90
2018-05-18T08:29:15.639Z,99.90
2018-05-18T08:31:43.271Z,99.90
2018-05-18T08:34:10.757Z,99.90
2018-05-18T08:36:39.153Z,99.90
2018-05-18T08:39:06.670Z,99.90
2018-05-18T08:41:34.116Z,99.90
2018-05-18T08:44:01.656Z,99.90
2018-05-18T08:46:33.388Z,99.90
2018-05-18T08:49:00.886Z,99.90
2018-05-18T08:51:29.564Z,99.90
2018-05-18T08:53:57.112Z,99.90
2018-05-18T08:56:25.331Z,99.90
2018-05-18T08:58:54.039Z,99.90
2018-05-18T09:01:25.682Z,99.90
2018-05-18T09:03:54.356Z,99.90
2018-05-18T09:06:21.836Z,99.90
2018-05-18T09:08:49.303Z,99.90
2018-05-18T09:11:17.046Z,99.90
2018-05-18T09:13:44.512Z,99.90
2018-05-18T09:16:16.309Z,99.90
2018-05-18T09:18:43.773Z,99.90
2018-05-18T09:21:11.316Z,99.90
2018-05-18T09:23:38.776Z,99.90
2018-05-18T09:26:06.244Z,99.90
2018-05-18T09:28:34.447Z,99.90
2018-05-18T09:31:10.388Z,99.90
2018-05-18T09:33:39.271Z,99.90
2018-05-18T09:36:07.566Z,99.90
2018-05-18T09:38:36.066Z,99.90
2018-05-18T09:41:03.793Z,99.90
2018-05-18T09:43:31.267Z,99.90
2018-05-18T09:46:03.306Z,99.90
2018-05-18T09:48:31.565Z,99.90
2018-05-18T09:50:59.231Z,99.90
2018-05-18T09:53:28.159Z,99.90
2018-05-18T09:55:55.701Z,99.90
2018-05-18T09:58:23.209Z,99.90
2018-05-18T10:00:55.162Z,99.90
2018-05-18T10:03:23.497Z,99.90
2018-05-18T10:05:51.041Z,99.90
2018-05-18T10:08:19.324Z,99.90
2018-05-18T10:10:47.846Z,99.90
2018-05-18T10:13:15.353Z,99.90
2018-05-18T10:15:43.185Z,99.90
2018-05-18T10:18:10.658Z,99.90
2018-05-18T10:20:38.116Z,99.90
2018-05-18T10:23:05.626Z,99.90
2018-05-18T10:25:33.115Z,99.90
2018-05-18T10:28:00.560Z,99.90
2018-05-18T10:30:29.866Z,99.90
2018-05-18T10:33:01.003Z,99.90
2018-05-18T10:35:28.464Z,99.90
2018-05-18T10:37:55.940Z,99.90
2018-05-18T10:40:23.425Z,99.90
2018-05-18T10:42:51.655Z,99.90
2018-05-18T10:45:19.165Z,99.90
2018-05-18T10:47:46.826Z,99.90
2018-05-18T10:50:14.547Z,99.90
2018-05-18T10:52:42.144Z,99.90
2018-05-18T10:55:09.654Z,99.90
2018-05-18T10:57:37.117Z,99.90
2018-05-18T11:00:05.544Z,99.90
2018-05-18T11:02:32.999Z,99.90
2018-05-18T11:05:00.605Z,99.90
2018-05-18T11:07:28.096Z,99.90
2018-05-18T11:09:55.570Z,99.90
2018-05-18T11:12:23.076Z,99.90
2018-05-18T11:14:50.792Z,99.90
2018-05-18T11:17:22.548Z,99.90
2018-05-18T11:19:50.133Z,99.90
2018-05-18T11:22:17.873Z,99.90
2018-05-18T11:24:45.535Z,99.90
2018-05-18T11:27:13.941Z,99.90
2018-05-18T11:29:41.451Z,99.90
2018-05-18T11:32:08.926Z,99.90
2018-05-18T11:34:36.408Z,99.90
2018-05-18T11:37:04.320Z,99.90
2018-05-18T11:39:31.929Z,99.90
2018-05-18T11:42:00.008Z,99.90
2018-05-18T11:44:28.000Z,99.90
2018-05-18T11:46:55.626Z,99.90
2018-05-18T11:49:23.125Z,99.90
2018-05-18T11:51:50.605Z,99.90
2018-05-18T11:54:18.067Z,99.90
2018-05-18T11:56:45.576Z,99.90
2018-05-18T11:59:13.029Z,99.90
2018-05-18T12:01:41.543Z,99.90
2018-05-18T12:04:09.047Z,99.90
2018-05-18T12:06:36.564Z,99.90
2018-05-18T12:09:04.069Z,99.90
2018-05-18T12:11:32.112Z,99.90
2018-05-18T12:14:00.496Z,99.90
2018-05-18T12:16:27.994Z,99.90
2018-05-18T12:19:00.136Z,99.90
2018-05-18T12:21:27.614Z,99.90
2018-05-18T12:23:55.452Z,99.90
2018-05-18T12:26:23.051Z,99.90
2018-05-18T12:28:51.556Z,99.90
2018-05-18T12:31:19.727Z,99.90
2018-05-18T12:33:51.233Z,99.90
2018-05-18T12:36:18.685Z,99.90
2018-05-18T12:38:46.192Z,99.90
2018-05-18T12:41:13.722Z,99.90
2018-05-18T12:43:41.944Z,99.90
2018-05-18T12:46:09.785Z,99.90
2018-05-18T12:48:37.671Z,99.90
2018-05-18T12:51:05.186Z,99.90
2018-05-18T12:53:35.103Z,99.90
2018-05-18T12:56:02.565Z,99.90
2018-05-18T12:58:30.054Z,99.90
2018-05-18T13:00:57.551Z,99.90
2018-05-18T13:03:25.044Z,99.90
2018-05-18T13:05:52.521Z,99.90
2018-05-18T13:08:19.984Z,99.90
2018-05-18T13:10:48.148Z,99.90
2018-05-18T13:13:15.622Z,99.90
2018-05-18T13:15:43.121Z,99.90
2018-05-18T13:18:10.626Z,99.90
2018-05-18T13:20:38.124Z,99.90
2018-05-18T13:23:05.624Z,99.90
2018-05-18T13:25:33.121Z,99.90
2018-05-18T13:28:01.729Z,99.90
2018-05-18T13:30:29.305Z,99.90
2018-05-18T13:32:56.717Z,99.90
2018-05-18T13:35:24.243Z,99.90
2018-05-18T13:37:51.815Z,99.90
2018-05-18T13:40:19.301Z,99.90
2018-05-18T13:42:46.884Z,99.90
2018-05-18T13:45:14.401Z,99.90
2018-05-18T13:47:41.856Z,99.90
2018-05-18T13:50:13.980Z,99.90
2018-05-18T13:52:48.971Z,99.90
2018-05-18T13:55:16.629Z,99.90
2018-05-18T13:57:44.090Z,99.90
2018-05-18T14:00:11.573Z,99.90
2018-05-18T14:02:39.061Z,99.90
2018-05-18T14:05:06.515Z,99.90
2018-05-18T14:07:37.435Z,99.90
2018-05-18T14:10:04.884Z,99.90
2018-05-18T14:12:33.468Z,99.90
2018-05-18T14:15:01.373Z,99.90
2018-05-18T14:17:28.840Z,99.90
2018-05-18T14:19:57.044Z,99.90
2018-05-18T14:22:28.310Z,99.90
2018-05-18T14:24:55.767Z,99.90
2018-05-18T14:27:23.244Z,99.90
2018-05-18T14:29:52.289Z,99.90
2018-05-18T14:32:19.941Z,99.90
2018-05-18T14:34:47.490Z,99.90
2018-05-18T14:37:15.042Z,99.90
2018-05-18T14:39:42.594Z,99.90
2018-05-18T14:42:11.046Z,99.90
2018-05-18T14:44:39.311Z,99.90
2018-05-18T14:47:06.772Z,99.90
2018-05-18T14:49:34.852Z,99.90
2018-05-18T14:52:06.873Z,99.90
2018-05-18T14:54:34.612Z,99.90
2018-05-18T14:57:02.105Z,99.90
2018-05-18T14:59:30.686Z,99.90
2018-05-18T15:01:59.617Z,99.90
2018-05-18T15:04:27.180Z,99.90
2018-05-18T15:06:57.789Z,99.90
2018-05-18T15:09:25.279Z,99.90
2018-05-18T15:11:54.559Z,99.90
2018-05-18T15:14:22.040Z,99.90
2018-05-18T15:16:50.416Z,99.90
2018-05-18T15:19:19.220Z,99.90
2018-05-18T15:21:49.933Z,99.90
2018-05-18T15:24:18.420Z,99.90
2018-05-18T15:26:47.622Z,99.90
2018-05-18T15:29:15.479Z,99.90
2018-05-18T15:31:43.824Z,99.90
2018-05-18T15:34:11.319Z,99.90
2018-05-18T15:36:39.559Z,99.90
2018-05-18T15:39:10.730Z,99.90
2018-05-18T15:41:39.528Z,99.90
2018-05-18T15:44:07.785Z,99.90
2018-05-18T15:46:36.804Z,99.90
2018-05-18T15:49:04.312Z,99.90
2018-05-18T15:51:31.795Z,99.90
2018-05-18T15:53:59.287Z,99.90
2018-05-18T15:56:26.826Z,99.90
2018-05-18T15:58:54.897Z,99.90
2018-05-18T16:01:23.167Z,99.90
2018-05-18T16:03:51.588Z,99.90
2018-05-18T16:06:19.513Z,99.90
2018-05-18T16:08:47.116Z,99.90
2018-05-18T16:11:14.677Z,99.50
2018-05-18T16:13:42.207Z,99.70
2018-05-18T16:16:10.697Z,99.60
2018-05-18T16:18:38.963Z,98.90
2018-05-18T16:21:06.835Z,98.80
2018-05-18T16:23:37.707Z,98.10
2018-05-18T16:26:05.249Z,97.50
2018-05-18T16:28:32.765Z,96.30
2018-05-18T16:31:00.595Z,95.80
2018-05-18T16:33:28.744Z,96.20
2018-05-18T16:35:56.235Z,96.40
2018-05-18T16:38:23.945Z,95.80
2018-05-18T16:40:52.223Z,95.90
2018-05-18T16:43:20.639Z,95.80
2018-05-18T16:45:48.117Z,95.70
2018-05-18T16:48:15.652Z,96.10
2018-05-18T16:50:43.133Z,95.40
2018-05-18T16:53:18.932Z,95.20
2018-05-18T16:55:46.506Z,95.30
2018-05-18T16:58:13.911Z,95.10
2018-05-18T17:00:41.454Z,94.70
2018-05-18T17:03:08.924Z,95.10
2018-05-18T17:05:36.540Z,95.90
2018-05-18T17:08:11.924Z,96.20
2018-05-18T17:10:39.450Z,96.40
2018-05-18T17:13:06.990Z,97.00
2018-05-18T17:15:34.443Z,97.60
2018-05-18T17:18:02.252Z,97.40
2018-05-18T17:20:31.228Z,97.90
2018-05-18T17:22:58.950Z,97.90
2018-05-18T17:25:26.522Z,97.80
2018-05-18T17:27:55.294Z,98.60
2018-05-18T17:30:23.627Z,98.60
2018-05-18T17:32:51.134Z,98.80
2018-05-18T17:35:18.740Z,99.00
2018-05-18T17:37:46.219Z,99.30
2018-05-18T17:40:14.595Z,99.10
2018-05-18T17:42:42.163Z,99.40
2018-05-18T17:45:09.712Z,99.90
2018-05-18T17:47:37.795Z,99.90
2018-05-18T17:50:05.266Z,99.90
2018-05-18T17:52:34.555Z,99.90
2018-05-18T17:55:02.140Z,99.90
2018-05-18T17:57:29.638Z,99.90
2018-05-18T17:59:57.194Z,99.90
2018-05-18T18:02:24.851Z,99.90
2018-05-18T18:04:52.359Z,99.90
2018-05-18T18:07:20.009Z,99.90
2018-05-18T18:09:50.428Z,99.90
2018-05-18T18:12:18.672Z,99.90
2018-05-18T18:14:46.239Z,99.90
2018-05-18T18:17:13.948Z,99.90
2018-05-18T18:19:41.839Z,99.90
2018-05-18T18:22:09.384Z,99.90
2018-05-18T18:24:41.467Z,99.90
2018-05-18T18:27:09.524Z,99.90
2018-05-18T18:29:37.300Z,99.90
2018-05-18T18:32:04.810Z,99.90
2018-05-18T18:34:32.364Z,99.90
2018-05-18T18:37:00.096Z,99.90
2018-05-18T18:39:38.010Z,99.90
2018-05-18T18:42:05.519Z,99.90
2018-05-18T18:44:33.057Z,99.90
2018-05-18T18:47:01.272Z,99.90
2018-05-18T18:49:28.856Z,99.90
2018-05-18T18:51:57.183Z,99.90
2018-05-18T18:54:24.725Z,99.90
2018-05-18T18:56:52.221Z,99.90
2018-05-18T18:59:21.412Z,99.90
2018-05-18T19:01:49.001Z,99.90
2018-05-18T19:04:16.505Z,99.90
2018-05-18T19:06:43.995Z,99.90
2018-05-18T19:09:11.543Z,99.90
2018-05-18T19:11:39.015Z,99.90
2018-05-18T19:14:06.532Z,99.90
2018-05-18T19:16:34.022Z,99.90
2018-05-18T19:19:01.535Z,99.90
2018-05-18T19:21:29.969Z,99.90
2018-05-18T19:23:57.624Z,99.90
2018-05-18T19:26:26.177Z,99.90
2018-05-18T19:28:54.443Z,99.90
2018-05-18T19:31:22.490Z,99.90
2018-05-18T19:33:50.168Z,99.90
2018-05-18T19:36:17.648Z,99.90
2018-05-18T19:38:45.232Z,99.90
2018-05-18T19:41:14.452Z,99.90
2018-05-18T19:43:42.012Z,99.90
2018-05-18T19:46:09.529Z,99.90
2018-05-18T19:48:38.177Z,99.90
2018-05-18T19:51:05.675Z,99.90
2018-05-18T19:53:33.165Z,99.90
2018-05-18T19:56:04.344Z,99.90
2018-05-18T19:58:31.860Z,99.90
2018-05-18T20:01:00.147Z,99.90
2018-05-18T20:03:28.201Z,99.90
2018-05-18T20:05:56.121Z,99.90
2018-05-18T20:08:23.651Z,99.90
2018-05-18T20:10:56.107Z,99.90
2018-05-18T20:13:24.593Z,99.90
2018-05-18T20:15:52.974Z,99.90
2018-05-18T20:18:21.265Z,99.90
2018-05-18T20:20:48.820Z,99.90
2018-05-18T20:23:16.328Z,99.90
2018-05-18T20:25:43.855Z,99.90
2018-05-18T20:28:12.064Z,99.90
2018-05-18T20:30:39.578Z,99.90
2018-05-18T20:33:07.102Z,99.90
2018-05-18T20:35:34.636Z,99.90
2018-05-18T20:38:02.192Z,99.90
2018-05-18T20:40:29.743Z,99.90
2018-05-18T20:42:57.221Z,99.90
2018-05-18T20:45:24.757Z,99.90
2018-05-18T20:47:53.103Z,99.90
2018-05-18T20:50:21.299Z,99.90
2018-05-18T20:52:48.807Z,99.90
2018-05-18T20:55:16.259Z,99.90
2018-05-18T20:57:47.620Z,99.90
2018-05-18T21:00:17.221Z,99.90
2018-05-18T21:02:45.001Z,99.90
2018-05-18T21:05:12.924Z,99.90
2018-05-18T21:07:41.859Z,99.90
2018-05-18T21:10:10.135Z,99.90
2018-05-18T21:12:41.678Z,99.90
2018-05-18T21:15:09.716Z,99.90
2018-05-18T21:17:37.256Z,99.90
2018-05-18T21:20:06.468Z,99.90
2018-05-18T21:22:33.964Z,99.90
2018-05-18T21:25:01.504Z,99.90
2018-05-18T21:27:32.057Z,99.90
2018-05-18T21:30:01.780Z,99.90
2018-05-18T21:32:29.290Z,99.90
2018-05-18T21:34:56.806Z,99.90
2018-05-18T21:37:24.410Z,99.90
2018-05-18T21:39:51.940Z,99.90
2018-05-18T21:42:20.183Z,99.90
2018-05-18T21:44:52.262Z,99.90
2018-05-18T21:47:21.459Z,99.90
2018-05-18T21:49:50.643Z,99.90
2018-05-18T21:52:18.354Z,99.90
2018-05-18T21:54:45.899Z,99.90
2018-05-18T21:57:13.412Z,99.90
2018-05-18T21:59:43.962Z,99.90
2018-05-18T22:02:11.430Z,99.90
2018-05-18T22:04:38.928Z,99.90
2018-05-18T22:07:06.476Z,99.90
2018-05-18T22:09:34.569Z,99.90
2018-05-18T22:12:02.919Z,99.90
2018-05-18T22:14:34.063Z,99.90
2018-05-18T22:17:02.328Z,99.90
2018-05-18T22:19:29.825Z,99.90
2018-05-18T22:21:57.609Z,99.90
2018-05-18T22:24:25.071Z,99.90
2018-05-18T22:26:52.588Z,99.90
2018-05-18T22:29:23.157Z,99.90
2018-05-18T22:31:50.613Z,99.90
2018-05-18T22:34:19.045Z,99.90
2018-05-18T22:36:46.518Z,99.90
2018-05-18T22:39:13.979Z,99.90
2018-05-18T22:41:41.538Z,99.90
2018-05-18T22:44:09.099Z,99.90
2018-05-18T22:46:36.652Z,99.90
2018-05-18T22:49:04.250Z,99.90
2018-05-18T22:51:32.019Z,99.90
2018-05-18T22:53:59.477Z,99.90
2018-05-18T22:56:28.261Z,99.90
2018-05-18T22:58:56.028Z,99.90
2018-05-18T23:01:23.534Z,99.90
2018-05-18T23:03:52.887Z,99.90
2018-05-18T23:06:20.352Z,99.90
2018-05-18T23:08:48.608Z,99.90
2018-05-18T23:11:16.081Z,99.90
2018-05-18T23:13:44.355Z,99.90
2018-05-18T23:16:12.643Z,99.90
2018-05-18T23:18:40.205Z,99.90
2018-05-18T23:21:08.463Z,99.90
2018-05-18T23:23:36.014Z,99.90
2018-05-18T23:26:03.516Z,99.90
2018-05-18T23:28:31.043Z,99.90
2018-05-18T23:30:58.509Z,99.90
2018-05-18T23:33:26.768Z,99.90
2018-05-18T23:35:54.586Z,99.90
2018-05-18T23:38:22.089Z,99.90
2018-05-18T23:40:50.784Z,99.90
2018-05-18T23:43:18.268Z,99.90
2018-05-18T23:45:49.221Z,99.90
2018-05-18T23:48:16.726Z,99.90
2018-05-18T23:50:45.790Z,99.90
2018-05-18T23:53:13.397Z,99.90
2018-05-18T23:55:40.854Z,99.90
2018-05-18T23:58:08.346Z,99.90
